sensor_id;sensor_type;location;lat;lon;timestamp;temperature;humidity
20081;DHT22;10200;49.232;9.222;2023-10-13T00:01:53;16.80;99.90
20081;DHT22;10200;49.232;9.222;2023-10-13T00:04:20;16.90;99.90
20081;DHT22;10200;49.232;9.222;2023-10-13T00:06:52;16.80;99.90
20081;DHT22;10200;49.232;9.222;2023-10-13T00:09:19;16.80;99.90
20081;DHT22;10200;49.232;9.222;2023-10-13T00:11:45;16.80;99.90
20081;DHT22;10200;49.232;9.222;2023-10-13T00:14:12;16.80;99.90
20081;DHT22;10200;49.232;9.222;2023-10-13T00:16:47;16.80;99.90
20081;DHT22;10200;49.232;9.222;2023-10-13T00:19:33;16.80;99.90
20081;DHT22;10200;49.232;9.222;2023-10-13T00:22:13;16.60;99.90
20081;DHT22;10200;49.232;9.222;2023-10-13T00:24:43;16.60;99.90
20081;DHT22;10200;49.232;9.222;2023-10-13T00:29:54;16.50;99.90
20081;DHT22;10200;49.232;9.222;2023-10-13T00:32:39;16.40;99.90
20081;DHT22;10200;49.232;9.222;2023-10-13T00:35:09;16.40;99.90
20081;DHT22;10200;49.232;9.222;2023-10-13T00:37:37;16.40;99.90
20081;DHT22;10200;49.232;9.222;2023-10-13T00:40:12;16.40;99.90
20081;DHT22;10200;49.232;9.222;2023-10-13T00:43:03;16.40;99.90
20081;DHT22;10200;49.232;9.222;2023-10-13T00:45:56;16.30;99.90
20081;DHT22;10200;49.232;9.222;2023-10-13T00:48:36;16.40;99.90
20081;DHT22;10200;49.232;9.222;2023-10-13T00:51:09;16.30;99.90
20081;DHT22;10200;49.232;9.222;2023-10-13T00:54:09;16.50;99.90
20081;DHT22;10200;49.232;9.222;2023-10-13T00:56:41;16.20;99.90
20081;DHT22;10200;49.232;9.222;2023-10-13T00:59:23;16.20;99.90
20081;DHT22;10200;49.232;9.222;2023-10-13T01:01:51;16.10;99.90
20081;DHT22;10200;49.232;9.222;2023-10-13T01:04:21;16.00;99.90
20081;DHT22;10200;49.232;9.222;2023-10-13T01:06:48;16.10;99.90
20081;DHT22;10200;49.232;9.222;2023-10-13T01:09:14;16.00;99.90
20081;DHT22;10200;49.232;9.222;2023-10-13T01:11:48;16.00;99.90
20081;DHT22;10200;49.232;9.222;2023-10-13T01:14:18;15.90;99.90
20081;DHT22;10200;49.232;9.222;2023-10-13T01:16:45;16.00;99.90
20081;DHT22;10200;49.232;9.222;2023-10-13T01:19:15;16.00;99.90
20081;DHT22;10200;49.232;9.222;2023-10-13T01:21:48;15.90;99.90
20081;DHT22;10200;49.232;9.222;2023-10-13T01:24:14;15.90;99.90
20081;DHT22;10200;49.232;9.222;2023-10-13T01:26:43;15.90;99.90
20081;DHT22;10200;49.232;9.222;2023-10-13T01:29:08;15.90;99.90
20081;DHT22;10200;49.232;9.222;2023-10-13T01:31:41;15.90;99.90
20081;DHT22;10200;49.232;9.222;2023-10-13T01:34:14;15.80;99.90
20081;DHT22;10200;49.232;9.222;2023-10-13T01:36:45;15.80;99.90
20081;DHT22;10200;49.232;9.222;2023-10-13T01:39:11;15.80;99.90
20081;DHT22;10200;49.232;9.222;2023-10-13T01:41:41;15.70;99.90
20081;DHT22;10200;49.232;9.222;2023-10-13T01:44:08;15.70;99.90
20081;DHT22;10200;49.232;9.222;2023-10-13T01:46:37;15.70;99.90
20081;DHT22;10200;49.232;9.222;2023-10-13T01:49:03;15.60;99.90
20081;DHT22;10200;49.232;9.222;2023-10-13T01:51:28;15.50;99.90
20081;DHT22;10200;49.232;9.222;2023-10-13T01:53:54;15.50;99.90
20081;DHT22;10200;49.232;9.222;2023-10-13T01:56:23;15.50;99.90
20081;DHT22;10200;49.232;9.222;2023-10-13T01:58:50;15.50;99.90
20081;DHT22;10200;49.232;9.222;2023-10-13T02:01:16;15.40;99.90
20081;DHT22;10200;49.232;9.222;2023-10-13T02:03:55;15.40;99.90
20081;DHT22;10200;49.232;9.222;2023-10-13T02:06:31;15.40;99.90
20081;DHT22;10200;49.232;9.222;2023-10-13T02:09:05;15.30;99.90
20081;DHT22;10200;49.232;9.222;2023-10-13T02:11:44;15.30;99.90
20081;DHT22;10200;49.232;9.222;2023-10-13T02:14:13;15.30;99.90
20081;DHT22;10200;49.232;9.222;2023-10-13T02:16:42;15.30;99.90
20081;DHT22;10200;49.232;9.222;2023-10-13T02:19:08;15.30;99.90
20081;DHT22;10200;49.232;9.222;2023-10-13T02:21:34;15.30;99.90
20081;DHT22;10200;49.232;9.222;2023-10-13T02:24:08;15.20;99.90
20081;DHT22;10200;49.232;9.222;2023-10-13T02:26:44;15.30;99.90
20081;DHT22;10200;49.232;9.222;2023-10-13T02:29:10;15.20;99.90
20081;DHT22;10200;49.232;9.222;2023-10-13T02:31:39;15.20;99.90
20081;DHT22;10200;49.232;9.222;2023-10-13T02:34:05;15.10;99.90
20081;DHT22;10200;49.232;9.222;2023-10-13T02:36:38;15.10;99.90
20081;DHT22;10200;49.232;9.222;2023-10-13T02:39:15;15.10;99.90
20081;DHT22;10200;49.232;9.222;2023-10-13T02:41:49;15.00;99.90
20081;DHT22;10200;49.232;9.222;2023-10-13T02:44:15;15.00;99.90
20081;DHT22;10200;49.232;9.222;2023-10-13T02:46:52;15.00;99.90
20081;DHT22;10200;49.232;9.222;2023-10-13T02:49:20;14.90;99.90
20081;DHT22;10200;49.232;9.222;2023-10-13T02:51:46;14.90;99.90
20081;DHT22;10200;49.232;9.222;2023-10-13T02:54:12;14.90;99.90
20081;DHT22;10200;49.232;9.222;2023-10-13T02:56:43;14.80;99.90
20081;DHT22;10200;49.232;9.222;2023-10-13T02:59:22;14.80;99.90
20081;DHT22;10200;49.232;9.222;2023-10-13T03:02:00;14.70;99.90
20081;DHT22;10200;49.232;9.222;2023-10-13T03:04:32;14.70;99.90
20081;DHT22;10200;49.232;9.222;2023-10-13T03:06:57;14.70;99.90
20081;DHT22;10200;49.232;9.222;2023-10-13T03:09:25;14.70;99.90
20081;DHT22;10200;49.232;9.222;2023-10-13T03:11:51;14.70;99.90
20081;DHT22;10200;49.232;9.222;2023-10-13T03:14:18;14.70;99.90
20081;DHT22;10200;49.232;9.222;2023-10-13T03:16:54;14.70;99.90
20081;DHT22;10200;49.232;9.222;2023-10-13T03:19:20;14.70;99.90
20081;DHT22;10200;49.232;9.222;2023-10-13T03:21:47;14.70;99.90
20081;DHT22;10200;49.232;9.222;2023-10-13T03:24:21;14.70;99.90
20081;DHT22;10200;49.232;9.222;2023-10-13T03:27:00;14.80;99.90
20081;DHT22;10200;49.232;9.222;2023-10-13T03:29:37;14.80;99.90
20081;DHT22;10200;49.232;9.222;2023-10-13T03:32:09;14.80;99.90
20081;DHT22;10200;49.232;9.222;2023-10-13T03:34:38;14.80;99.90
20081;DHT22;10200;49.232;9.222;2023-10-13T03:37:11;14.80;99.90
20081;DHT22;10200;49.232;9.222;2023-10-13T03:39:43;14.70;99.90
20081;DHT22;10200;49.232;9.222;2023-10-13T03:42:10;14.80;99.90
20081;DHT22;10200;49.232;9.222;2023-10-13T03:44:44;14.90;99.90
20081;DHT22;10200;49.232;9.222;2023-10-13T03:47:12;14.80;99.90
20081;DHT22;10200;49.232;9.222;2023-10-13T03:49:54;14.80;99.90
20081;DHT22;10200;49.232;9.222;2023-10-13T03:52:39;14.80;99.90
20081;DHT22;10200;49.232;9.222;2023-10-13T03:55:05;14.80;99.90
20081;DHT22;10200;49.232;9.222;2023-10-13T03:57:32;14.80;99.90
20081;DHT22;10200;49.232;9.222;2023-10-13T03:59:59;14.80;99.90
20081;DHT22;10200;49.232;9.222;2023-10-13T04:02:33;14.80;99.90
20081;DHT22;10200;49.232;9.222;2023-10-13T04:04:59;14.80;99.90
20081;DHT22;10200;49.232;9.222;2023-10-13T04:07:33;14.80;99.90
20081;DHT22;10200;49.232;9.222;2023-10-13T04:09:58;14.80;99.90
20081;DHT22;10200;49.232;9.222;2023-10-13T04:12:56;14.80;99.90
20081;DHT22;10200;49.232;9.222;2023-10-13T04:15:43;14.70;99.90
20081;DHT22;10200;49.232;9.222;2023-10-13T04:18:29;14.80;99.90
20081;DHT22;10200;49.232;9.222;2023-10-13T04:21:16;14.70;99.90
20081;DHT22;10200;49.232;9.222;2023-10-13T04:26:34;14.70;99.90
20081;DHT22;10200;49.232;9.222;2023-10-13T04:29:23;14.70;99.90
20081;DHT22;10200;49.232;9.222;2023-10-13T04:32:15;14.60;99.90
20081;DHT22;10200;49.232;9.222;2023-10-13T04:34:52;14.50;99.90
20081;DHT22;10200;49.232;9.222;2023-10-13T04:37:24;14.50;99.90
20081;DHT22;10200;49.232;9.222;2023-10-13T04:39:58;14.50;99.90
20081;DHT22;10200;49.232;9.222;2023-10-13T04:42:35;14.40;99.90
20081;DHT22;10200;49.232;9.222;2023-10-13T04:45:20;14.50;99.90
20081;DHT22;10200;49.232;9.222;2023-10-13T04:47:58;14.40;99.90
20081;DHT22;10200;49.232;9.222;2023-10-13T04:50:51;14.40;99.90
20081;DHT22;10200;49.232;9.222;2023-10-13T04:53:22;14.40;99.90
20081;DHT22;10200;49.232;9.222;2023-10-13T04:55:55;14.30;99.90
20081;DHT22;10200;49.232;9.222;2023-10-13T04:58:33;14.30;99.90
20081;DHT22;10200;49.232;9.222;2023-10-13T05:01:02;14.30;99.90
20081;DHT22;10200;49.232;9.222;2023-10-13T05:04:03;14.30;99.90
20081;DHT22;10200;49.232;9.222;2023-10-13T05:06:56;14.20;99.90
20081;DHT22;10200;49.232;9.222;2023-10-13T05:09:40;14.30;99.90
20081;DHT22;10200;49.232;9.222;2023-10-13T05:12:24;14.30;99.90
20081;DHT22;10200;49.232;9.222;2023-10-13T05:15:08;14.30;99.90
20081;DHT22;10200;49.232;9.222;2023-10-13T05:17:52;14.30;99.90
20081;DHT22;10200;49.232;9.222;2023-10-13T05:20:37;14.40;99.90
20081;DHT22;10200;49.232;9.222;2023-10-13T05:23:21;14.40;99.90
20081;DHT22;10200;49.232;9.222;2023-10-13T05:26:05;14.40;99.90
20081;DHT22;10200;49.232;9.222;2023-10-13T05:28:49;14.40;99.90
20081;DHT22;10200;49.232;9.222;2023-10-13T05:31:33;14.30;99.90
20081;DHT22;10200;49.232;9.222;2023-10-13T05:34:17;14.20;99.90
20081;DHT22;10200;49.232;9.222;2023-10-13T05:37:01;14.20;99.90
20081;DHT22;10200;49.232;9.222;2023-10-13T05:39:45;14.20;99.90
20081;DHT22;10200;49.232;9.222;2023-10-13T05:42:29;14.20;99.90
20081;DHT22;10200;49.232;9.222;2023-10-13T05:45:13;14.20;99.90
20081;DHT22;10200;49.232;9.222;2023-10-13T05:47:49;14.20;99.90
20081;DHT22;10200;49.232;9.222;2023-10-13T05:50:26;14.20;99.90
20081;DHT22;10200;49.232;9.222;2023-10-13T05:52:51;14.20;99.90
20081;DHT22;10200;49.232;9.222;2023-10-13T05:55:30;14.20;99.90
20081;DHT22;10200;49.232;9.222;2023-10-13T05:58:15;14.20;99.90
20081;DHT22;10200;49.232;9.222;2023-10-13T06:01:00;14.20;99.90
20081;DHT22;10200;49.232;9.222;2023-10-13T06:03:44;14.20;99.90
20081;DHT22;10200;49.232;9.222;2023-10-13T06:06:28;14.30;99.90
20081;DHT22;10200;49.232;9.222;2023-10-13T06:09:12;14.30;99.90
20081;DHT22;10200;49.232;9.222;2023-10-13T06:11:56;14.40;99.90
20081;DHT22;10200;49.232;9.222;2023-10-13T06:14:40;14.40;99.90
20081;DHT22;10200;49.232;9.222;2023-10-13T06:17:24;14.40;99.90
20081;DHT22;10200;49.232;9.222;2023-10-13T06:20:08;14.50;99.90
20081;DHT22;10200;49.232;9.222;2023-10-13T06:22:53;14.50;99.90
20081;DHT22;10200;49.232;9.222;2023-10-13T06:25:38;14.70;99.90
20081;DHT22;10200;49.232;9.222;2023-10-13T06:28:22;14.80;99.90
20081;DHT22;10200;49.232;9.222;2023-10-13T06:31:06;15.20;99.90
20081;DHT22;10200;49.232;9.222;2023-10-13T06:33:33;15.70;99.90
20081;DHT22;10200;49.232;9.222;2023-10-13T06:36:02;16.10;99.90
20081;DHT22;10200;49.232;9.222;2023-10-13T06:38:29;16.50;99.90
20081;DHT22;10200;49.232;9.222;2023-10-13T06:41:02;16.90;99.90
20081;DHT22;10200;49.232;9.222;2023-10-13T06:43:34;17.20;99.90
20081;DHT22;10200;49.232;9.222;2023-10-13T06:46:11;17.70;99.90
20081;DHT22;10200;49.232;9.222;2023-10-13T06:48:40;18.20;99.90
20081;DHT22;10200;49.232;9.222;2023-10-13T06:51:07;18.60;99.90
20081;DHT22;10200;49.232;9.222;2023-10-13T06:53:48;18.90;99.90
20081;DHT22;10200;49.232;9.222;2023-10-13T06:56:17;19.10;99.90
20081;DHT22;10200;49.232;9.222;2023-10-13T06:58:52;19.60;99.90
20081;DHT22;10200;49.232;9.222;2023-10-13T07:01:27;20.00;99.90
20081;DHT22;10200;49.232;9.222;2023-10-13T07:03:53;20.50;98.90
20081;DHT22;10200;49.232;9.222;2023-10-13T07:06:22;20.90;96.50
20081;DHT22;10200;49.232;9.222;2023-10-13T07:08:48;21.30;94.70
20081;DHT22;10200;49.232;9.222;2023-10-13T07:11:27;21.60;92.50
20081;DHT22;10200;49.232;9.222;2023-10-13T07:14:02;21.80;91.10
20081;DHT22;10200;49.232;9.222;2023-10-13T07:16:56;22.00;90.00
20081;DHT22;10200;49.232;9.222;2023-10-13T07:19:28;22.50;88.50
20081;DHT22;10200;49.232;9.222;2023-10-13T07:21:55;22.70;85.70
20081;DHT22;10200;49.232;9.222;2023-10-13T07:24:44;22.90;83.90
20081;DHT22;10200;49.232;9.222;2023-10-13T07:27:10;23.30;82.30
20081;DHT22;10200;49.232;9.222;2023-10-13T07:29:36;23.70;80.30
20081;DHT22;10200;49.232;9.222;2023-10-13T07:32:02;23.90;78.60
20081;DHT22;10200;49.232;9.222;2023-10-13T07:34:30;24.20;77.10
20081;DHT22;10200;49.232;9.222;2023-10-13T07:37:01;24.50;76.10
20081;DHT22;10200;49.232;9.222;2023-10-13T07:39:28;24.80;74.00
20081;DHT22;10200;49.232;9.222;2023-10-13T07:41:54;25.00;72.90
20081;DHT22;10200;49.232;9.222;2023-10-13T07:44:23;25.00;71.40
20081;DHT22;10200;49.232;9.222;2023-10-13T07:46:57;25.20;71.00
20081;DHT22;10200;49.232;9.222;2023-10-13T07:49:32;25.30;70.10
20081;DHT22;10200;49.232;9.222;2023-10-13T07:52:02;25.40;70.90
20081;DHT22;10200;49.232;9.222;2023-10-13T07:54:50;25.60;70.10
20081;DHT22;10200;49.232;9.222;2023-10-13T07:57:25;25.80;68.40
20081;DHT22;10200;49.232;9.222;2023-10-13T07:59:57;25.80;67.60
20081;DHT22;10200;49.232;9.222;2023-10-13T08:03:00;25.90;67.60
20081;DHT22;10200;49.232;9.222;2023-10-13T08:05:35;26.00;65.60
20081;DHT22;10200;49.232;9.222;2023-10-13T08:08:23;26.10;65.60
20081;DHT22;10200;49.232;9.222;2023-10-13T08:11:01;26.20;66.60
20081;DHT22;10200;49.232;9.222;2023-10-13T08:13:40;26.20;66.90
20081;DHT22;10200;49.232;9.222;2023-10-13T08:16:12;26.20;65.90
20081;DHT22;10200;49.232;9.222;2023-10-13T08:18:47;26.20;66.30
20081;DHT22;10200;49.232;9.222;2023-10-13T08:21:15;26.40;65.80
20081;DHT22;10200;49.232;9.222;2023-10-13T08:23:45;26.40;65.60
20081;DHT22;10200;49.232;9.222;2023-10-13T08:26:24;26.50;65.90
20081;DHT22;10200;49.232;9.222;2023-10-13T08:29:05;26.60;63.60
20081;DHT22;10200;49.232;9.222;2023-10-13T08:31:50;26.60;64.20
20081;DHT22;10200;49.232;9.222;2023-10-13T08:34:47;26.60;61.50
20081;DHT22;10200;49.232;9.222;2023-10-13T08:37:13;26.40;60.60
20081;DHT22;10200;49.232;9.222;2023-10-13T08:39:48;26.20;59.90
20081;DHT22;10200;49.232;9.222;2023-10-13T08:42:30;26.00;60.90
20081;DHT22;10200;49.232;9.222;2023-10-13T08:45:16;25.90;61.80
20081;DHT22;10200;49.232;9.222;2023-10-13T08:47:52;25.90;61.50
20081;DHT22;10200;49.232;9.222;2023-10-13T08:50:45;25.80;62.60
20081;DHT22;10200;49.232;9.222;2023-10-13T08:56:11;25.60;63.60
20081;DHT22;10200;49.232;9.222;2023-10-13T08:58:47;25.50;64.20
20081;DHT22;10200;49.232;9.222;2023-10-13T09:04:05;25.10;64.70
20081;DHT22;10200;49.232;9.222;2023-10-13T09:06:51;25.10;65.60
20081;DHT22;10200;49.232;9.222;2023-10-13T09:09:28;24.90;65.40
20081;DHT22;10200;49.232;9.222;2023-10-13T09:14:37;24.70;66.20
20081;DHT22;10200;49.232;9.222;2023-10-13T09:17:26;24.60;66.30
20081;DHT22;10200;49.232;9.222;2023-10-13T09:20:08;24.50;65.90
20081;DHT22;10200;49.232;9.222;2023-10-13T09:22:56;24.60;64.60
20081;DHT22;10200;49.232;9.222;2023-10-13T09:25:31;24.50;63.50
20081;DHT22;10200;49.232;9.222;2023-10-13T09:28:13;24.40;61.20
20081;DHT22;10200;49.232;9.222;2023-10-13T09:30:49;24.30;59.90
20081;DHT22;10200;49.232;9.222;2023-10-13T09:33:20;24.20;59.60
20081;DHT22;10200;49.232;9.222;2023-10-13T09:35:54;24.10;59.10
20081;DHT22;10200;49.232;9.222;2023-10-13T09:38:20;24.10;58.80
20081;DHT22;10200;49.232;9.222;2023-10-13T09:40:49;24.10;59.10
20081;DHT22;10200;49.232;9.222;2023-10-13T09:43:24;24.10;59.30
20081;DHT22;10200;49.232;9.222;2023-10-13T09:45:58;24.10;58.40
20081;DHT22;10200;49.232;9.222;2023-10-13T09:48:44;24.10;58.40
20081;DHT22;10200;49.232;9.222;2023-10-13T09:51:18;24.10;58.70
20081;DHT22;10200;49.232;9.222;2023-10-13T09:54:09;24.10;58.80
20081;DHT22;10200;49.232;9.222;2023-10-13T09:56:40;24.10;58.60
20081;DHT22;10200;49.232;9.222;2023-10-13T09:59:19;24.00;58.60
20081;DHT22;10200;49.232;9.222;2023-10-13T10:01:49;24.10;58.50
20081;DHT22;10200;49.232;9.222;2023-10-13T10:04:22;24.10;58.30
20081;DHT22;10200;49.232;9.222;2023-10-13T10:06:59;24.10;57.60
20081;DHT22;10200;49.232;9.222;2023-10-13T10:09:29;24.10;58.00
20081;DHT22;10200;49.232;9.222;2023-10-13T10:17:41;24.10;58.30
20081;DHT22;10200;49.232;9.222;2023-10-13T10:20:07;24.20;58.30
20081;DHT22;10200;49.232;9.222;2023-10-13T10:22:56;24.40;57.20
20081;DHT22;10200;49.232;9.222;2023-10-13T10:25:34;24.50;57.30
20081;DHT22;10200;49.232;9.222;2023-10-13T10:28:05;24.50;57.10
20081;DHT22;10200;49.232;9.222;2023-10-13T10:30:33;24.50;56.60
20081;DHT22;10200;49.232;9.222;2023-10-13T10:33:00;24.50;56.60
20081;DHT22;10200;49.232;9.222;2023-10-13T10:35:27;24.60;56.90
20081;DHT22;10200;49.232;9.222;2023-10-13T10:38:06;24.60;56.40
20081;DHT22;10200;49.232;9.222;2023-10-13T10:40:49;24.60;56.80
20081;DHT22;10200;49.232;9.222;2023-10-13T10:43:18;24.60;56.10
20081;DHT22;10200;49.232;9.222;2023-10-13T10:45:48;24.70;55.90
20081;DHT22;10200;49.232;9.222;2023-10-13T10:48:18;24.70;55.70
20081;DHT22;10200;49.232;9.222;2023-10-13T10:50:56;24.70;55.60
20081;DHT22;10200;49.232;9.222;2023-10-13T10:53:24;24.70;55.90
20081;DHT22;10200;49.232;9.222;2023-10-13T10:56:25;24.80;56.50
20081;DHT22;10200;49.232;9.222;2023-10-13T10:59:11;24.80;55.80
20081;DHT22;10200;49.232;9.222;2023-10-13T11:01:50;24.90;55.40
20081;DHT22;10200;49.232;9.222;2023-10-13T11:04:19;25.00;55.20
20081;DHT22;10200;49.232;9.222;2023-10-13T11:06:54;25.00;55.20
20081;DHT22;10200;49.232;9.222;2023-10-13T11:09:30;25.00;54.50
20081;DHT22;10200;49.232;9.222;2023-10-13T11:11:57;25.10;54.70
20081;DHT22;10200;49.232;9.222;2023-10-13T11:14:39;25.10;55.10
20081;DHT22;10200;49.232;9.222;2023-10-13T11:17:05;25.20;54.90
20081;DHT22;10200;49.232;9.222;2023-10-13T11:19:44;25.20;54.90
20081;DHT22;10200;49.232;9.222;2023-10-13T11:22:14;25.20;54.20
20081;DHT22;10200;49.232;9.222;2023-10-13T11:24:59;25.20;54.50
20081;DHT22;10200;49.232;9.222;2023-10-13T11:27:32;25.20;54.10
20081;DHT22;10200;49.232;9.222;2023-10-13T11:30:19;25.30;54.10
20081;DHT22;10200;49.232;9.222;2023-10-13T11:35:23;25.30;54.80
20081;DHT22;10200;49.232;9.222;2023-10-13T11:37:50;25.40;54.80
20081;DHT22;10200;49.232;9.222;2023-10-13T11:40:41;25.50;54.60
20081;DHT22;10200;49.232;9.222;2023-10-13T11:43:45;25.50;54.70
20081;DHT22;10200;49.232;9.222;2023-10-13T11:46:31;25.50;54.30
20081;DHT22;10200;49.232;9.222;2023-10-13T11:49:02;25.60;54.80
20081;DHT22;10200;49.232;9.222;2023-10-13T11:51:33;25.60;54.50
20081;DHT22;10200;49.232;9.222;2023-10-13T11:53:59;25.60;53.80
20081;DHT22;10200;49.232;9.222;2023-10-13T11:56:25;25.60;54.00
20081;DHT22;10200;49.232;9.222;2023-10-13T11:58:51;25.60;54.00
20081;DHT22;10200;49.232;9.222;2023-10-13T12:01:17;25.70;54.40
20081;DHT22;10200;49.232;9.222;2023-10-13T12:03:45;25.70;54.30
20081;DHT22;10200;49.232;9.222;2023-10-13T12:06:33;25.80;54.10
20081;DHT22;10200;49.232;9.222;2023-10-13T12:11:43;25.80;53.70
20081;DHT22;10200;49.232;9.222;2023-10-13T12:14:13;25.90;53.60
20081;DHT22;10200;49.232;9.222;2023-10-13T12:16:58;25.90;52.80
20081;DHT22;10200;49.232;9.222;2023-10-13T12:19:32;25.90;52.80
20081;DHT22;10200;49.232;9.222;2023-10-13T12:22:00;26.00;52.50
20081;DHT22;10200;49.232;9.222;2023-10-13T12:24:37;26.00;52.90
20081;DHT22;10200;49.232;9.222;2023-10-13T12:27:03;26.00;52.20
20081;DHT22;10200;49.232;9.222;2023-10-13T12:29:47;26.10;51.70
20081;DHT22;10200;49.232;9.222;2023-10-13T12:32:13;26.10;51.30
20081;DHT22;10200;49.232;9.222;2023-10-13T12:34:40;26.10;51.30
20081;DHT22;10200;49.232;9.222;2023-10-13T12:37:25;26.20;51.10
20081;DHT22;10200;49.232;9.222;2023-10-13T12:40:18;26.20;51.20
20081;DHT22;10200;49.232;9.222;2023-10-13T12:43:07;26.20;50.90
20081;DHT22;10200;49.232;9.222;2023-10-13T12:45:51;26.20;50.60
20081;DHT22;10200;49.232;9.222;2023-10-13T12:48:36;26.30;50.80
20081;DHT22;10200;49.232;9.222;2023-10-13T12:51:21;26.30;49.50
20081;DHT22;10200;49.232;9.222;2023-10-13T12:53:56;26.40;49.10
20081;DHT22;10200;49.232;9.222;2023-10-13T12:56:30;26.30;49.10
20081;DHT22;10200;49.232;9.222;2023-10-13T12:58:56;26.20;48.80
20081;DHT22;10200;49.232;9.222;2023-10-13T13:01:24;26.20;48.90
20081;DHT22;10200;49.232;9.222;2023-10-13T13:03:52;26.10;48.80
20081;DHT22;10200;49.232;9.222;2023-10-13T13:06:23;26.00;49.10
20081;DHT22;10200;49.232;9.222;2023-10-13T13:08:55;26.00;49.00
20081;DHT22;10200;49.232;9.222;2023-10-13T13:11:22;26.00;48.50
20081;DHT22;10200;49.232;9.222;2023-10-13T13:13:48;26.00;48.50
20081;DHT22;10200;49.232;9.222;2023-10-13T13:16:15;26.10;48.40
20081;DHT22;10200;49.232;9.222;2023-10-13T13:18:46;26.10;48.40
20081;DHT22;10200;49.232;9.222;2023-10-13T13:21:12;26.20;48.00
20081;DHT22;10200;49.232;9.222;2023-10-13T13:23:39;26.20;48.30
20081;DHT22;10200;49.232;9.222;2023-10-13T13:26:08;26.20;48.30
20081;DHT22;10200;49.232;9.222;2023-10-13T13:28:42;26.20;49.10
20081;DHT22;10200;49.232;9.222;2023-10-13T13:31:08;26.20;48.40
20081;DHT22;10200;49.232;9.222;2023-10-13T13:33:35;26.10;48.90
20081;DHT22;10200;49.232;9.222;2023-10-13T13:36:07;26.10;48.60
20081;DHT22;10200;49.232;9.222;2023-10-13T13:38:32;26.10;48.60
20081;DHT22;10200;49.232;9.222;2023-10-13T13:41:02;26.20;47.90
20081;DHT22;10200;49.232;9.222;2023-10-13T13:43:29;26.20;47.50
20081;DHT22;10200;49.232;9.222;2023-10-13T13:46:07;26.30;47.40
20081;DHT22;10200;49.232;9.222;2023-10-13T13:48:36;26.40;47.50
20081;DHT22;10200;49.232;9.222;2023-10-13T13:51:06;26.50;47.00
20081;DHT22;10200;49.232;9.222;2023-10-13T13:53:40;26.60;46.70
20081;DHT22;10200;49.232;9.222;2023-10-13T13:56:10;26.60;46.50
20081;DHT22;10200;49.232;9.222;2023-10-13T13:58:36;26.70;46.60
20081;DHT22;10200;49.232;9.222;2023-10-13T14:01:05;26.70;46.50
20081;DHT22;10200;49.232;9.222;2023-10-13T14:03:48;26.70;46.20
20081;DHT22;10200;49.232;9.222;2023-10-13T14:06:18;26.70;46.40
20081;DHT22;10200;49.232;9.222;2023-10-13T14:08:47;26.70;46.40
20081;DHT22;10200;49.232;9.222;2023-10-13T14:11:27;26.70;46.20
20081;DHT22;10200;49.232;9.222;2023-10-13T14:14:12;26.80;46.30
20081;DHT22;10200;49.232;9.222;2023-10-13T14:16:51;26.80;46.20
20081;DHT22;10200;49.232;9.222;2023-10-13T14:19:17;26.90;46.10
20081;DHT22;10200;49.232;9.222;2023-10-13T14:21:52;26.90;45.90
20081;DHT22;10200;49.232;9.222;2023-10-13T14:24:19;26.90;45.60
20081;DHT22;10200;49.232;9.222;2023-10-13T14:26:56;26.90;45.80
20081;DHT22;10200;49.232;9.222;2023-10-13T14:29:22;26.90;45.70
20081;DHT22;10200;49.232;9.222;2023-10-13T14:31:51;26.90;45.80
20081;DHT22;10200;49.232;9.222;2023-10-13T14:34:17;26.80;45.80
20081;DHT22;10200;49.232;9.222;2023-10-13T14:36:43;26.80;45.70
20081;DHT22;10200;49.232;9.222;2023-10-13T14:39:14;26.70;45.40
20081;DHT22;10200;49.232;9.222;2023-10-13T14:41:40;26.70;45.40
20081;DHT22;10200;49.232;9.222;2023-10-13T14:44:06;26.70;45.10
20081;DHT22;10200;49.232;9.222;2023-10-13T14:46:32;26.70;45.00
20081;DHT22;10200;49.232;9.222;2023-10-13T14:49:01;26.70;44.90
20081;DHT22;10200;49.232;9.222;2023-10-13T14:51:28;26.60;44.90
20081;DHT22;10200;49.232;9.222;2023-10-13T14:53:55;26.50;44.50
20081;DHT22;10200;49.232;9.222;2023-10-13T14:56:26;26.40;44.60
20081;DHT22;10200;49.232;9.222;2023-10-13T14:58:56;26.30;44.40
20081;DHT22;10200;49.232;9.222;2023-10-13T15:01:23;26.30;44.90
20081;DHT22;10200;49.232;9.222;2023-10-13T15:03:52;26.10;44.70
20081;DHT22;10200;49.232;9.222;2023-10-13T15:06:26;26.10;45.40
20081;DHT22;10200;49.232;9.222;2023-10-13T15:08:59;26.10;45.40
20081;DHT22;10200;49.232;9.222;2023-10-13T15:11:26;26.10;45.50
20081;DHT22;10200;49.232;9.222;2023-10-13T15:13:54;26.20;45.30
20081;DHT22;10200;49.232;9.222;2023-10-13T15:16:22;26.20;45.40
20081;DHT22;10200;49.232;9.222;2023-10-13T15:18:50;26.30;45.80
20081;DHT22;10200;49.232;9.222;2023-10-13T15:21:21;26.30;45.50
20081;DHT22;10200;49.232;9.222;2023-10-13T15:23:48;26.30;45.40
20081;DHT22;10200;49.232;9.222;2023-10-13T15:26:16;26.30;45.30
20081;DHT22;10200;49.232;9.222;2023-10-13T15:28:41;26.30;45.20
20081;DHT22;10200;49.232;9.222;2023-10-13T15:31:33;26.20;44.90
20081;DHT22;10200;49.232;9.222;2023-10-13T15:33:58;26.20;45.00
20081;DHT22;10200;49.232;9.222;2023-10-13T15:36:26;26.10;45.20
20081;DHT22;10200;49.232;9.222;2023-10-13T15:38:52;26.10;45.20
20081;DHT22;10200;49.232;9.222;2023-10-13T15:41:25;26.00;45.70
20081;DHT22;10200;49.232;9.222;2023-10-13T15:43:51;25.90;45.80
20081;DHT22;10200;49.232;9.222;2023-10-13T15:46:18;25.80;45.80
20081;DHT22;10200;49.232;9.222;2023-10-13T15:48:50;25.70;46.00
20081;DHT22;10200;49.232;9.222;2023-10-13T15:51:16;25.60;46.20
20081;DHT22;10200;49.232;9.222;2023-10-13T15:53:43;25.60;46.20
20081;DHT22;10200;49.232;9.222;2023-10-13T15:56:13;25.50;46.30
20081;DHT22;10200;49.232;9.222;2023-10-13T15:58:46;25.40;46.50
20081;DHT22;10200;49.232;9.222;2023-10-13T16:01:14;25.30;47.40
20081;DHT22;10200;49.232;9.222;2023-10-13T16:03:44;25.20;47.50
20081;DHT22;10200;49.232;9.222;2023-10-13T16:06:15;25.10;47.90
20081;DHT22;10200;49.232;9.222;2023-10-13T16:08:44;24.90;48.30
20081;DHT22;10200;49.232;9.222;2023-10-13T16:11:12;24.80;48.60
20081;DHT22;10200;49.232;9.222;2023-10-13T16:13:44;24.70;49.00
20081;DHT22;10200;49.232;9.222;2023-10-13T16:18:43;24.50;49.30
20081;DHT22;10200;49.232;9.222;2023-10-13T16:21:10;24.40;49.40
20081;DHT22;10200;49.232;9.222;2023-10-13T16:23:38;24.30;49.30
20081;DHT22;10200;49.232;9.222;2023-10-13T16:26:07;24.20;49.50
20081;DHT22;10200;49.232;9.222;2023-10-13T16:28:35;24.20;49.70
20081;DHT22;10200;49.232;9.222;2023-10-13T16:31:02;24.10;50.20
20081;DHT22;10200;49.232;9.222;2023-10-13T16:33:28;24.10;51.10
20081;DHT22;10200;49.232;9.222;2023-10-13T16:35:55;24.00;51.00
20081;DHT22;10200;49.232;9.222;2023-10-13T16:38:22;23.90;52.20
20081;DHT22;10200;49.232;9.222;2023-10-13T16:40:53;23.70;52.70